Latest Weather Observations for Murganella Airstrip

IDD60801

Issued at 7:01 pm CST Saturday 25 March 2017 (issued every 30 minutes, with the page automatically refreshed every 10 minutes)

About weather observations | Map of weather stations | Latest weather observations for NT | Other Formats
Station Details ID: 014309 Name: MURGANELLA AIRSTRIP Lat: -11.55 Lon: 132.93 Height: 9.5 m
Data from the previous 72 hours. | See also: Recent months at Murganella Airstrip
Date/Time
CST
Temp
°C
App
Temp
°C
Dew
Point
°C
Rel
Hum
%
Delta-T
°C
Wind Press
QNH
hPa
Press
MSL
hPa
Rain since
9am
mm
Dir  Spd
km/h
Gust
km/h
Spd
kts
Gust
kts
25/07:00pm 27.6 34.6 25.8 90 1.3 CALM 0 0 0 0 1006.7 1006.6 1.0
25/06:30pm 27.4 32.8 25.2 88 1.5 NNW 6 13 3 7 1006.4 1006.3 1.0
25/06:00pm 28.7 34.5 26.1 86 1.9 N 7 17 4 9 1006.3 1006.2 0.4
25/05:30pm 29.9 34.3 24.5 73 3.8 NNW 9 17 5 9 1006.0 1005.9 0.0
25/05:00pm 31.9 37.3 25.2 67 4.7 NNW 6 13 3 7 1005.7 1005.6 0.0
25/04:30pm 32.1 38.0 25.9 70 4.4 NW 6 13 3 7 1005.7 1005.6 0.0
25/04:00pm 31.3 36.2 25.2 70 4.3 N 9 19 5 10 1005.9 1005.8 0.0
25/03:30pm 32.7 37.4 25.5 66 5.1 N 11 22 6 12 1006.2 1006.1 0.0
25/03:00pm 32.1 35.6 24.9 65 5.1 NNW 15 28 8 15 1006.6 1006.5 0.0
25/02:30pm 32.2 35.7 24.8 65 5.2 NNW 15 28 8 15 1006.7 1006.6 0.0
25/02:00pm 31.6 34.6 24.7 67 4.8 NNW 17 30 9 16 1006.9 1006.8 0.0
25/01:30pm 31.5 35.4 25.4 70 4.3 N 15 24 8 13 1007.7 1007.6 0.0
25/01:00pm 32.3 35.1 24.9 65 5.2 NNW 19 30 10 16 1008.1 1008.0 0.0
25/12:30pm 32.7 36.4 25.8 67 4.9 NNW 17 30 9 16 1008.2 1008.1 0.0
25/12:00pm 32.3 35.9 25.6 67 4.8 NNW 17 35 9 19 1008.5 1008.4 0.0
25/11:30am 32.3 37.0 26.1 70 4.4 NNW 13 24 7 13 1008.9 1008.8 0.0
25/11:00am 30.4 34.3 25.5 75 3.5 NNW 15 24 8 13 1009.0 1008.9 0.0
25/10:30am 30.1 34.0 24.9 73 3.7 NNW 13 22 7 12 1009.2 1009.1 0.0
25/10:00am 31.1 35.5 25.7 73 3.8 N 13 26 7 14 1009.1 1009.0 0.0
25/09:30am 31.5 36.6 26.1 73 3.9 NNW 11 20 6 11 1008.9 1008.8 0.0
25/09:00am 30.7 35.6 25.8 75 3.5 N 11 20 6 11 1008.7 1008.6 0.0
25/08:30am 29.5 35.5 26.3 83 2.3 N 7 15 4 8 1008.2 1008.1 0.0
25/08:00am 27.6 33.2 25.8 90 1.3 N 7 15 4 8 1007.7 1007.6 0.0
25/07:30am 25.8 31.4 24.9 95 0.6 N 4 7 2 4 1007.7 1007.6 0.0
25/07:00am 25.4 30.3 24.4 94 0.7 N 6 6 3 3 1007.5 1007.4 0.0
25/06:30am 25.5 31.3 24.5 94 0.7 NE 2 4 1 2 1007.4 1007.3 0.0
25/06:00am 25.6 31.8 24.6 94 0.7 CALM 0 0 0 0 1007.5 1007.4 0.0
25/05:30am 25.6 31.8 24.6 94 0.7 CALM 0 2 0 1 1007.0 1006.9 0.0
25/05:00am 25.7 32.0 24.8 95 0.6 CALM 0 0 0 0 1006.7 1006.6 0.0
25/04:30am 25.8 31.8 24.8 94 0.7 NNW 2 4 1 2 1006.7 1006.6 0.0
25/04:00am 25.6 31.1 24.6 94 0.7 NNW 4 6 2 3 1007.0 1006.9 0.0
25/03:30am 25.7 32.0 24.7 94 0.7 CALM 0 0 0 0 1007.1 1007.0 0.0
25/03:00am 25.7 32.0 24.7 94 0.7 CALM 0 0 0 0 1007.5 1007.4 0.0
25/02:30am 25.8 32.1 24.8 94 0.7 CALM 0 0 0 0 1007.9 1007.8 0.0
25/02:00am 25.8 32.1 24.8 94 0.7 CALM 0 0 0 0 1008.1 1008.0 0.0
25/01:30am 25.9 32.2 24.7 93 0.8 CALM 0 0 0 0 1007.9 1007.8 0.0
25/01:00am 25.9 32.2 24.7 93 0.8 CALM 0 0 0 0 1008.2 1008.1 0.0
25/12:30am 26.1 32.5 24.9 93 0.8 CALM 0 0 0 0 1008.8 1008.7 0.0
25/12:00am 26.2 32.7 25.0 93 0.8 CALM 0 0 0 0 1009.0 1008.9 0.0
 
Date/Time
CST
Temp
°C
App
Temp
°C
Dew
Point
°C
Rel
Hum
%
Delta-T
°C
Wind Press
QNH
hPa
Press
MSL
hPa
Rain since
9am
mm
Dir  Spd
km/h
Gust
km/h
Spd
kts
Gust
kts
24/11:30pm 26.2 32.7 25.0 93 0.8 CALM 0 4 0 2 1009.2 1009.1 0.0
24/11:00pm 26.3 32.8 25.1 93 0.8 CALM 0 0 0 0 1009.3 1009.2 0.0
24/10:30pm 26.3 32.7 24.9 92 1.0 CALM 0 0 0 0 1009.2 1009.1 0.0
24/10:00pm 26.3 32.6 24.7 91 1.1 CALM 0 0 0 0 1008.8 1008.7 0.0
24/09:30pm 26.5 32.9 24.9 91 1.1 CALM 0 0 0 0 1008.4 1008.3 0.0
24/09:00pm 26.8 32.8 24.8 89 1.4 N 2 4 1 2 1007.5 1007.4 0.0
24/08:30pm 27.0 33.1 25.0 89 1.4 NNE 2 4 1 2 1007.1 1007.0 0.0
24/08:00pm 27.3 33.4 25.1 88 1.5 NNE 2 4 1 2 1007.1 1007.0 0.0
24/07:30pm 27.7 34.0 25.3 87 1.7 NNE 2 4 1 2 1007.2 1007.1 0.0
24/07:00pm 28.1 33.9 25.1 84 2.1 NNE 4 4 2 2 1006.7 1006.6 0.0
24/06:30pm 28.7 33.8 24.7 79 2.8 N 6 11 3 6 1006.3 1006.2 0.0
24/06:00pm 29.1 35.1 25.5 81 2.5 N 4 7 2 4 1006.1 1006.0 0.0
24/05:30pm 29.2 33.8 24.1 74 3.5 N 7 15 4 8 1006.0 1005.9 0.0
24/05:00pm 30.9 34.7 24.1 67 4.7 N 11 19 6 10 1005.7 1005.6 0.0
24/04:30pm 30.6 35.3 25.0 72 3.9 N 9 13 5 7 1006.0 1005.9 0.0
24/04:00pm 31.3 34.9 24.4 66 4.8 N 13 22 7 12 1006.2 1006.1 0.0
24/03:30pm 31.6 36.2 24.7 67 4.9 N 9 17 5 9 1006.4 1006.3 0.0
24/03:00pm 30.8 34.3 24.2 68 4.6 NNE 13 24 7 13 1006.7 1006.6 0.0
24/02:30pm 32.7 37.0 25.5 66 5.1 N 13 20 7 11 1006.6 1006.5 0.0
24/02:00pm 33.3 38.5 26.3 66 5.0 N 11 20 6 11 1007.1 1007.0 0.0
24/01:30pm 32.3 37.2 25.9 69 4.6 NNE 11 22 6 12 1007.3 1007.2 0.0
24/01:00pm 32.4 37.4 26.0 69 4.6 NNE 11 22 6 12 1007.6 1007.5 0.0
24/12:30pm 31.9 35.6 24.5 65 5.2 NNE 13 20 7 11 1008.2 1008.1 0.0
24/12:00pm 32.7 37.0 25.5 66 5.1 NNE 13 22 7 12 1008.9 1008.8 0.0
24/11:30am 32.6 37.1 25.2 65 5.2 NNE 11 19 6 10 1009.3 1009.2 0.0
24/11:00am 31.9 36.5 24.7 65 5.1 NNE 9 19 5 10 1009.9 1009.8 0.0
24/10:30am 31.4 35.8 24.5 67 4.8 NNE 9 17 5 9 1009.9 1009.8 0.0
24/10:00am 31.4 36.1 25.5 71 4.2 NE 11 19 6 10 1009.9 1009.8 0.0
24/09:30am 30.1 35.0 25.2 75 3.5 NNE 9 13 5 7 1009.7 1009.6 0.0
24/09:00am 29.7 36.1 26.1 81 2.6 NNE 4 9 2 5 1009.5 1009.4 0.0
24/08:30am 28.1 34.5 26.1 89 1.4 NNE 4 6 2 3 1009.3 1009.2 0.0
24/08:00am 26.5 32.8 25.3 93 0.8 SE 2 4 1 2 1009.2 1009.1 0.0
24/07:30am 25.1 31.3 24.6 97 0.3 CALM 0 0 0 0 1008.9 1008.8 0.0
24/07:00am 24.2 29.6 23.3 95 0.6 CALM 0 0 0 0 1008.8 1008.7 0.0
24/06:30am 24.0 29.3 23.0 94 0.7 CALM 0 0 0 0 1008.6 1008.5 0.0
24/06:00am 24.1 29.4 23.1 94 0.7 CALM 0 0 0 0 1008.2 1008.1 0.0
24/05:30am 24.3 29.7 23.3 94 0.7 CALM 0 0 0 0 1008.1 1008.0 0.0
24/05:00am 24.4 29.9 23.4 94 0.7 CALM 0 0 0 0 1007.8 1007.7 0.0
24/04:30am 24.4 29.9 23.4 94 0.7 CALM 0 0 0 0 1007.8 1007.7 0.0
24/04:00am 24.5 30.1 23.5 94 0.7 CALM 0 0 0 0 1007.7 1007.6 0.0
24/03:30am 24.6 30.1 23.4 93 0.8 CALM 0 0 0 0 1007.9 1007.8 0.0
24/03:00am 24.7 30.4 23.7 94 0.7 CALM 0 0 0 0 1007.8 1007.7 0.0
24/02:30am 24.8 30.4 23.6 93 0.8 CALM 0 0 0 0 1007.9 1007.8 0.0
24/02:00am 24.9 30.6 23.7 93 0.8 CALM 0 0 0 0 1008.2 1008.1 0.0
24/01:30am 25.1 30.9 23.9 93 0.8 CALM 0 0 0 0 1008.7 1008.6 0.0
24/01:00am 25.2 31.0 24.0 93 0.8 CALM 0 0 0 0 1009.2 1009.1 0.0
24/12:30am 25.4 31.4 24.2 93 0.8 CALM 0 0 0 0 1009.4 1009.3 0.0
24/12:00am 25.5 31.5 24.3 93 0.8 CALM 0 0 0 0 1009.7 1009.6 0.0
 
Date/Time
CST
Temp
°C
App
Temp
°C
Dew
Point
°C
Rel
Hum
%
Delta-T
°C
Wind Press
QNH
hPa
Press
MSL
hPa
Rain since
9am
mm
Dir  Spd
km/h
Gust
km/h
Spd
kts
Gust
kts
23/11:30pm 25.6 31.7 24.4 93 0.8 CALM 0 0 0 0 1009.9 1009.8 0.0
23/11:00pm 25.7 31.7 24.3 92 1.0 CALM 0 0 0 0 1009.9 1009.8 0.0
23/10:30pm 25.8 31.9 24.4 92 1.0 CALM 0 0 0 0 1010.1 1010.0 0.0
23/10:00pm 26.0 32.1 24.4 91 1.1 CALM 0 0 0 0 1010.2 1010.1 0.0
23/09:30pm 26.2 32.4 24.6 91 1.1 CALM 0 0 0 0 1010.0 1009.9 0.0
23/09:00pm 26.4 32.2 24.6 90 1.2 N 2 4 1 2 1009.4 1009.3 0.0
23/08:30pm 26.7 33.0 24.7 89 1.4 CALM 0 0 0 0 1009.2 1009.1 0.0
23/08:00pm 27.0 33.3 24.8 88 1.5 CALM 0 0 0 0 1008.7 1008.6 0.0
23/07:30pm 27.3 33.6 24.7 86 1.8 CALM 0 2 0 1 1008.0 1007.9 0.0
23/07:00pm 28.1 33.6 24.7 82 2.4 N 4 6 2 3 1007.7 1007.6 0.0
23/06:30pm 28.8 34.1 24.4 77 3.1 NNW 4 7 2 4 1007.5 1007.4 0.0
23/06:00pm 29.8 33.6 23.5 69 4.3 NW 9 15 5 8 1007.1 1007.0 0.0
23/05:30pm 31.2 36.3 24.6 68 4.6 NNW 6 11 3 6 1006.5 1006.4 0.0
23/05:00pm 32.1 36.9 24.4 63 5.4 NNW 7 13 4 7 1006.2 1006.1 0.0
23/04:30pm 32.1 36.9 24.4 63 5.4 N 7 15 4 8 1006.3 1006.2 0.0
23/04:00pm 32.8 37.7 25.3 64 5.3 NNW 9 13 5 7 1006.5 1006.4 0.0
23/03:30pm 32.4 37.5 24.7 64 5.4 NNW 6 9 3 5 1006.7 1006.6 0.0
23/03:00pm 32.3 37.5 25.1 65 5.1 N 7 11 4 6 1007.1 1007.0 0.0
23/02:30pm 31.4 37.4 25.5 71 4.2 N 4 7 2 4 1007.6 1007.5 0.0
23/02:00pm 30.0 35.4 25.1 75 3.4 N 6 9 3 5 1008.3 1008.2 0.0
23/01:30pm 30.2 36.5 25.9 78 3.1 NNW 4 6 2 3 1008.6 1008.5 0.0
23/01:00pm 30.1 36.3 25.8 78 3.1 NW 4 6 2 3 1008.9 1008.8 0.0
23/12:30pm 30.0 34.8 24.4 72 3.9 NNW 7 9 4 5 1009.6 1009.5 0.0
23/12:00pm 30.5 35.2 23.9 68 4.6 NW 6 11 3 6 1010.2 1010.1 0.0
23/11:30am 30.7 35.6 24.6 70 4.3 NNW 7 11 4 6 1010.3 1010.2 0.0
23/11:00am 30.6 35.9 25.0 72 3.9 NNW 6 9 3 5 1010.4 1010.3 0.0
23/10:30am 30.7 35.6 24.4 69 4.4 WNW 6 13 3 7 1010.6 1010.5 0.0
23/10:00am 31.7 36.6 25.3 69 4.5 N 9 13 5 7 1010.6 1010.5 0.0
23/09:30am 30.3 35.6 24.9 73 3.8 NNW 6 9 3 5 1010.5 1010.4 0.0
23/09:00am 28.7 34.5 25.1 81 2.5 NW 4 7 2 4 1010.4 1010.3 0.2
23/08:30am 27.5 33.8 25.3 88 1.5 N 2 4 1 2 1010.5 1010.4 0.2
23/08:00am 26.0 32.5 25.1 95 0.6 CALM 0 2 0 1 1009.9 1009.8 0.2
23/07:30am 25.3 31.5 24.6 96 0.5 CALM 0 0 0 0 1009.4 1009.3 0.2
23/07:00am 24.4 30.0 23.5 95 0.6 CALM 0 0 0 0 1009.2 1009.1 0.2
23/06:30am 24.4 30.0 23.5 95 0.6 CALM 0 0 0 0 1009.2 1009.1 0.2
23/06:00am 24.4 30.0 23.5 95 0.6 CALM 0 0 0 0 1008.7 1008.6 0.2
23/05:30am 24.2 29.6 23.3 95 0.6 CALM 0 0 0 0 1008.3 1008.2 0.2
23/05:00am 24.3 29.7 23.3 94 0.7 CALM 0 0 0 0 1008.2 1008.1 0.2
23/04:30am 24.4 29.9 23.4 94 0.7 CALM 0 0 0 0 1008.1 1008.0 0.2
23/04:00am 24.6 30.2 23.6 94 0.7 CALM 0 0 0 0 1007.9 1007.8 0.2
23/03:30am 24.8 30.5 23.8 94 0.7 CALM 0 0 0 0 1008.0 1007.9 0.2
23/03:00am 24.8 30.5 23.8 94 0.7 CALM 0 0 0 0 1008.4 1008.3 0.2
23/02:30am 25.0 30.8 24.0 94 0.7 CALM 0 0 0 0 1008.6 1008.5 0.2
23/02:00am 25.1 31.0 24.1 94 0.7 CALM 0 0 0 0 1008.8 1008.7 0.2
23/01:30am 25.1 31.0 24.1 94 0.7 CALM 0 0 0 0 1009.3 1009.2 0.2
23/01:00am 25.1 30.9 23.9 93 0.8 CALM 0 0 0 0 1009.8 1009.7 0.2
23/12:30am 25.2 31.0 24.0 93 0.8 CALM 0 4 0 2 1010.2 1010.1 0.2
23/12:00am 25.3 31.2 24.1 93 0.8 CALM 0 0 0 0 1010.5 1010.4 0.2
 
Date/Time
CST
Temp
°C
App
Temp
°C
Dew
Point
°C
Rel
Hum
%
Delta-T
°C
Wind Press
QNH
hPa
Press
MSL
hPa
Rain since
9am
mm
Dir  Spd
km/h
Gust
km/h
Spd
kts
Gust
kts
22/11:30pm 25.3 31.2 24.1 93 0.8 CALM 0 0 0 0 1010.5 1010.4 0.2
22/11:00pm 25.5 31.5 24.3 93 0.8 CALM 0 0 0 0 1010.5 1010.4 0.2
22/10:30pm 25.6 31.6 24.2 92 1.0 CALM 0 2 0 1 1010.3 1010.2 0.2
22/10:00pm 25.8 31.9 24.4 92 1.0 CALM 0 0 0 0 1010.1 1010.0 0.2
22/09:30pm 26.0 32.1 24.4 91 1.1 CALM 0 0 0 0 1009.7 1009.6 0.2
22/09:00pm 26.4 32.6 24.6 90 1.2 CALM 0 0 0 0 1009.5 1009.4 0.2
22/08:30pm 26.8 33.1 24.8 89 1.4 CALM 0 0 0 0 1009.3 1009.2 0.2
22/08:00pm 26.8 32.9 24.5 87 1.6 CALM 0 0 0 0 1008.8 1008.7 0.2
22/07:30pm 27.2 33.5 24.7 86 1.7 CALM 0 0 0 0 1008.8 1008.7 0.2

Other Formats:

Comma delimited format used in spreadsheet applications
http://www.bom.gov.au/fwo/IDD60801/IDD60801.94109.axf

JavaScript Object Notation format (JSON) in row-major order
http://www.bom.gov.au/fwo/IDD60801/IDD60801.94109.json